Metar Cercanos

 

LEPA - Palma De Mallorc, Spain
Distance from station: ONO 38km
Actualización: Fri, 07-May-2021 3:00am CEST
Few Clouds
Few Clouds
 Viento del SO
Viento: SO 7 km/h
Temperatura: 16°C
Rocío: 14°C
Humedad: 88%
Barómetro: 1016 hPa
Clouds: Few Clouds
Visibility: 10 km
Cloud details: Few Clouds 457 m
2021/05/07 01:00 LEPA 070100Z 23004KT 9999 FEW015 16/14 Q1016 NOSIG
LEMH - Mahon/Menorca Is, Spain
Distance from station: ENE 105km
Actualización: Fri, 07-May-2021 3:00am CEST
Muy nuboso
Muy nuboso
 Viento del SO
Viento: SO 9 km/h
Temperatura: 15°C
Rocío: 14°C
Humedad: 94%
Barómetro: 1016 hPa
Clouds: Muy nuboso
Visibility: 10 km
Cloud details: Parcialmente nuboso 183 m
Muy nuboso 213 m
2021/05/07 01:00 LEMH 070100Z AUTO 23005KT 9999 SCT006/// BKN007/// 15/14 Q1016
 
LEIB - Ibiza/Es Codola, Spain
Distance from station: OSO 165km
Actualización: Fri, 07-May-2021 3:00am CEST
Few Clouds
Few Clouds
 Viento del SO
Viento: SO 15 km/h
Temperatura: 18°C
Rocío: 18°C
Humedad: 100%
Barómetro: 1016 hPa
Clouds: Few Clouds
Visibility: 10 km
Cloud details: Few Clouds 305 m
2021/05/07 01:00 LEIB 070100Z 23008KT 9999 FEW010 18/18 Q1016 NOSIG
LEBL - Barcelona Airpor, Spain
Distance from station: NNO 225km
Actualización: Fri, 07-May-2021 3:00am CEST
Few Clouds
Few Clouds
 Viento del ONO
Viento: ONO 7 km/h
Temperatura: 15°C
Rocío: 13°C
Humedad: 88%
Barómetro: 1015 hPa
Clouds: Few Clouds
Visibility: 10 km
Cloud details: Few Clouds 610 m
2021/05/07 01:00 LEBL 070100Z 29004KT 270V330 9999 FEW020 15/13 Q1015 NOSIG
 
LEVC - Valencia (civ/Mi, Spain
Distance from station: NO 188km
Actualización: Fri, 07-May-2021 3:00am CEST
Despejado
Despejado
 Viento del NO
Viento: NO 6 km/h
Temperatura: 15°C
Rocío: 14°C
Humedad: 94%
Barómetro: 1015 hPa
Resumen: Despejado
Visibility: greater than 10 km
2021/05/07 01:00 LEVC 070100Z 31003KT CAVOK 15/14 Q1015 NOSIG
LEGE - Gerona/Costa Bra, Spain
Distance from station: N 276km
Actualización: Fri, 07-May-2021 3:00am CEST
Parcialmente nuboso
Parcialmente nuboso
 Viento del NNE
Viento: NNE 4 km/h
Temperatura: 12°C
Rocío: 11°C
Humedad: 94%
Barómetro: 1014 hPa
Clouds: Parcialmente nuboso
Visibility: 8 km
2021/05/07 01:00 LEGE 070100Z 03002KT 8000 NSC 12/11 Q1014
 
LEAL - Alicante/El Alte, Spain
Distance from station: OSO 344km
Actualización: Fri, 07-May-2021 3:00am CEST
Parcialmente nuboso
Parcialmente nuboso
 Viento del OSO
Viento: OSO 7 km/h
Temperatura: 15°C
Rocío: 14°C
Humedad: 94%
Barómetro: 1016 hPa
Clouds: Parcialmente nuboso
Visibility: 7 km
2021/05/07 01:00 LEAL 070100Z 24004KT 7000 NSC 15/14 Q1016 NOSIG
LEAM - Almeria Airport, Spain
Distance from station: SSO 56km
Actualización: Fri, 07-May-2021 3:00am CEST
Despejado
Despejado
 Viento del OSO
Viento: OSO 6 km/h
Temperatura: 16°C
Rocío: 15°C
Humedad: 94%
Barómetro: 1017 hPa
Clouds: Despejado
Visibility: 6 km
2021/05/07 01:00 LEAM 070100Z AUTO 25003KT 6000 NCD 16/15 Q1017
 
LEZG - Zaragoza (mil/Ci, Spain
Distance from station: NO 431km
Actualización: Fri, 07-May-2021 3:00am CEST
Despejado
Despejado
 Viento del O
Viento: O 20 km/h
Temperatura: 16°C
Rocío: 10°C
Humedad: 68%
Barómetro: 1016 hPa
Resumen: Despejado
Visibility: greater than 10 km
2021/05/07 01:00 LEZG 070100Z 28011KT CAVOK 16/10 Q1016
LEMD - Madrid/Barajas, Spain
Distance from station: ONO 234km
Actualización: Fri, 07-May-2021 3:00am CEST
Despejado
Despejado
 Viento del ENE
Viento: ENE 6 km/h
Temperatura: 13°C
Rocío: 4°C
Humedad: 55%
Barómetro: 1018 hPa
Resumen: Despejado
Visibility: greater than 10 km
2021/05/07 01:00 LEMD 070100Z 07003KT 330V110 CAVOK 13/04 Q1018 NOSIG
 
LEGR - Granada Airport, Spain
Distance from station: OSO 62km
Actualización: Fri, 07-May-2021 3:00am CEST
Despejado
Despejado
 Viento del calm
Viento: Calma
Temperatura: 13°C
Rocío: 9°C
Humedad: 77%
Barómetro: 1020 hPa
Resumen: Despejado
Visibility: greater than 10 km
2021/05/07 01:00 LEGR 070100Z AUTO 00000KT CAVOK 13/09 Q1020
LEMG - Malaga (civ/Mil), Spain
Distance from station: OSO 227km
Actualización: Fri, 07-May-2021 3:00am CEST
Parcialmente nuboso
Parcialmente nuboso
 Viento del O
Viento: O 9 km/h
Temperatura: 16°C
Rocío: 15°C
Humedad: 94%
Barómetro: 1017 hPa
Clouds: Parcialmente nuboso
Visibility: 7 km
2021/05/07 01:00 LEMG 070100Z 28005KT 7000 NSC 16/15 Q1017 NOSIG
 
LEZL - Sevilla (civ/Mil, Spain
Distance from station: S 318km
Actualización: Fri, 07-May-2021 3:00am CEST
Despejado
Despejado
 Viento del SSE
Viento: SSE 2 km/h
Temperatura: 16°C
Rocío: 12°C
Humedad: 77%
Barómetro: 1018 hPa
Resumen: Despejado
Visibility: greater than 10 km
2021/05/07 01:00 LEZL 070100Z AUTO 16001KT CAVOK 16/12 Q1018
LEVT - Vitoria, Spain
Distance from station: NO 226km
Actualización: Fri, 07-May-2021 3:00am CEST
Muy nuboso
Muy nuboso
 Viento del varies
Viento: varies 2 km/h
Temperatura: 11°C
Rocío: 11°C
Humedad: 100%
Barómetro: 1018 hPa
Clouds: Muy nuboso
Visibility: 8 km
Cloud details: Few Clouds 457 m
Muy nuboso 1981 m
2021/05/07 01:00 LEVT 070100Z VRB01KT 8000 FEW015 BKN065 11/11 Q1018
 
LEBB - Bilbao/Sondica, Spain
Distance from station: NNO 235km
Actualización: Fri, 07-May-2021 3:00am CEST
Parcialmente nuboso
Parcialmente nuboso
 Viento del varies
Viento: varies 4 km/h
Temperatura: 15°C
Rocío: 13°C
Humedad: 88%
Barómetro: 1018 hPa
Clouds: Parcialmente nuboso
Visibility: 10 km
Cloud details: Parcialmente nuboso 792 m
2021/05/07 01:00 LEBB 070100Z AUTO VRB02KT 9999 SCT026 15/13 Q1018
LESO - San Sebastian/Fu, Spain
Distance from station: N 231km
Actualización: Fri, 07-May-2021 3:00am CEST
Cubierto
Cubierto
 Viento del OSO
Viento: OSO 6 km/h
Temperatura: 16°C
Rocío: 13°C
Humedad: 83%
Barómetro: 1018 hPa
Clouds: Cubierto
Visibility: 10 km
Cloud details: Cubierto 762 m
2021/05/07 01:00 LESO 070100Z AUTO 24003KT 200V290 9999 OVC025 16/13 Q1018
 
LEVD - Valladolid(Mil/C, Spain
Distance from station: ONO 239km
Actualización: Fri, 07-May-2021 3:00am CEST
Despejado
Despejado
 Viento del OSO
Viento: OSO 11 km/h
Temperatura: 10°C
Sensación frio: 8°C
Rocío: 8°C
Humedad: 88%
Barómetro: 1020 hPa
Resumen: Despejado
Visibility: greater than 10 km
2021/05/07 01:00 LEVD 070100Z AUTO 25006KT CAVOK 10/08 Q1020
LESA - Salamanca (civ/M, Spain
Distance from station: ONO 349km
Actualización: Fri, 07-May-2021 3:00am CEST
Despejado
Despejado
 Viento del OSO
Viento: OSO 11 km/h
Temperatura: 9°C
Sensación frio: 7°C
Rocío: 7°C
Humedad: 87%
Barómetro: 1021 hPa
Resumen: Despejado
Visibility: greater than 10 km
2021/05/07 01:00 LESA 070100Z AUTO 24006KT CAVOK 09/07 Q1021
 
LEXJ - Santander/Paraya, Spain
Distance from station: NNO 247km
Actualización: Fri, 07-May-2021 3:00am CEST
Parcialmente nuboso
Parcialmente nuboso
 Viento del varies
Viento: varies 2 km/h
Temperatura: 15°C
Rocío: 12°C
Humedad: 82%
Barómetro: 1018 hPa
Clouds: Parcialmente nuboso
Visibility: 10 km
Cloud details: Parcialmente nuboso 1737 m
2021/05/07 01:00 LEXJ 070100Z AUTO VRB01KT 9999 SCT057 15/12 Q1018
LEAS - Asturias/Aviles, Spain
Distance from station: NO 214km
Actualización: Fri, 07-May-2021 3:00am CEST
Muy nuboso
Muy nuboso
 Viento del O
Viento: O 7 km/h
Temperatura: 16°C
Rocío: 11°C
Humedad: 72%
Barómetro: 1017 hPa
Clouds: Muy nuboso
Visibility: 10 km
Cloud details: Muy nuboso 1372 m
2021/05/07 01:00 LEAS 070100Z AUTO 28004KT 240V300 9999 BKN045 16/11 Q1017
 
LECO - La Coruna/Alvedr, Spain
Distance from station: ONO 222km
Actualización: Fri, 07-May-2021 3:00am CEST
Muy nuboso
Muy nuboso
 Viento del SSO
Viento: SSO 9 km/h
Temperatura: 15°C
Rocío: 13°C
Humedad: 88%
Barómetro: 1019 hPa
Clouds: Muy nuboso
Visibility: 10 km
Cloud details: Muy nuboso 975 m
2021/05/07 01:00 LECO 070100Z AUTO 21005KT 170V240 9999 BKN032 15/13 Q1019
LEVX - Vigo/Peinador, Spain
Distance from station: O 214km
Actualización: Fri, 07-May-2021 3:00am CEST
Muy nuboso
Muy nuboso
 Viento del S
Viento: S 9 km/h
Temperatura: 13°C
Rocío: 13°C
Humedad: 100%
Barómetro: 1020 hPa
Clouds: Muy nuboso
Visibility: 10 km
Cloud details: Muy nuboso 91 m
2021/05/07 01:00 LEVX 070100Z 19005KT 9999 BKN003 13/13 Q1020 NOSIG